Terminal Aerodrome Forecast
Issued by NWS

Home | Current Version | Previous Version | Text Only | Print | Product List | Glossary On
Versions: 1 2 3 4 5 6 7 8 9 10 11 12 13 14 15 16 17 18 19 20 21 22 23 24 25 26 27 28 29 30 31 32 33 34 35 36 37 38 39 40 41 42 43 44 45 46 47 48 49 50
999
FTUS42 KRAH 070520
TAFRWI
TAF
KRWI 070520Z 0706/0806 30005KT P6SM BKN008
     FM070900 31003KT 6SM BR SCT010
      TEMPO 0710/0712 00000KT 1SM BR BKN006
     FM071200 35006KT P6SM SCT250
     FM080200 00000KT P6SM OVC100=

USA.gov is the U.S. government's official web portal to all federal, state and local government web resources and services.